createdAt,value
2018-06-10T00:01:20.275Z,71.60
2018-06-10T00:03:47.940Z,72.00
2018-06-10T00:06:15.862Z,73.40
2018-06-10T00:08:43.453Z,74.30
2018-06-10T00:13:38.570Z,75.50
2018-06-10T00:16:06.122Z,75.20
2018-06-10T00:18:33.729Z,75.80
2018-06-10T00:21:01.257Z,75.80
2018-06-10T00:23:28.862Z,75.70
2018-06-10T00:25:56.415Z,75.00
2018-06-10T00:28:29.821Z,74.70
2018-06-10T00:30:57.373Z,74.10
2018-06-10T00:33:25.049Z,74.60
2018-06-10T00:35:52.598Z,75.10
2018-06-10T00:38:20.240Z,75.90
2018-06-10T00:40:47.788Z,76.10
2018-06-10T00:43:15.380Z,76.30
2018-06-10T00:45:42.990Z,76.30
2018-06-10T00:50:38.120Z,77.00
2018-06-10T00:53:05.689Z,76.20
2018-06-10T00:55:33.306Z,77.20
2018-06-10T00:58:01.018Z,77.50
2018-06-10T01:00:35.353Z,79.00
2018-06-10T01:03:02.981Z,79.10
2018-06-10T01:05:30.559Z,78.70
2018-06-10T01:07:58.884Z,79.50
2018-06-10T01:10:26.499Z,79.30
2018-06-10T01:12:54.060Z,79.10
2018-06-10T01:15:21.677Z,79.90
2018-06-10T01:20:16.834Z,78.90
2018-06-10T01:22:44.403Z,79.40
2018-06-10T01:25:11.975Z,80.00
2018-06-10T01:27:39.549Z,80.50
2018-06-10T01:30:07.163Z,80.60
2018-06-10T01:32:34.720Z,81.40
2018-06-10T01:35:02.329Z,81.00
2018-06-10T01:37:29.973Z,81.50
2018-06-10T01:39:57.525Z,80.50
2018-06-10T01:42:25.098Z,81.70
2018-06-10T01:44:52.673Z,81.70
2018-06-10T01:47:20.312Z,82.30
2018-06-10T01:49:47.885Z,83.00
2018-06-10T01:52:15.452Z,82.90
2018-06-10T01:57:10.533Z,84.60
2018-06-10T01:59:38.106Z,85.10
2018-06-10T02:02:05.678Z,86.20
2018-06-10T02:04:33.247Z,86.70
2018-06-10T02:07:00.769Z,85.90
2018-06-10T02:09:28.321Z,86.90
2018-06-10T02:11:55.901Z,86.80
2018-06-10T02:14:23.513Z,87.50
2018-06-10T02:16:51.074Z,87.00
2018-06-10T02:19:18.651Z,88.40
2018-06-10T02:21:46.209Z,88.70
2018-06-10T02:24:13.778Z,88.50
2018-06-10T02:26:41.335Z,88.50
2018-06-10T02:29:08.877Z,89.00
2018-06-10T02:31:36.413Z,89.90
2018-06-10T02:34:04.058Z,90.00
2018-06-10T02:38:59.198Z,89.10
2018-06-10T02:41:26.741Z,89.80
2018-06-10T02:48:49.405Z,91.00
2018-06-10T02:53:44.516Z,91.60
2018-06-10T02:58:39.724Z,92.00
2018-06-10T03:01:07.305Z,93.00
2018-06-10T03:03:34.942Z,92.90
2018-06-10T03:06:02.529Z,92.80
2018-06-10T03:08:30.057Z,92.90
2018-06-10T03:10:57.647Z,93.00
2018-06-10T03:20:47.901Z,93.90
2018-06-10T03:25:43.176Z,95.10
2018-06-10T03:28:10.876Z,95.10
2018-06-10T03:30:38.528Z,94.90
2018-06-10T03:35:33.610Z,95.70
2018-06-10T03:38:01.153Z,96.10
2018-06-10T03:40:28.731Z,96.20
2018-06-10T03:42:56.280Z,96.40
2018-06-10T03:45:23.838Z,96.30
2018-06-10T03:47:51.562Z,97.20
2018-06-10T03:50:19.141Z,97.50
2018-06-10T03:52:46.700Z,97.70
2018-06-10T03:55:14.323Z,98.00
2018-06-10T03:57:41.856Z,99.00
2018-06-10T04:00:09.801Z,99.80
2018-06-10T04:02:37.369Z,99.90
2018-06-10T04:05:04.934Z,99.90
2018-06-10T04:07:32.479Z,99.90
2018-06-10T04:10:00.042Z,99.90
2018-06-10T04:12:27.581Z,99.90
2018-06-10T04:14:55.261Z,99.70
2018-06-10T04:17:22.961Z,99.90
2018-06-10T04:19:50.598Z,99.80
2018-06-10T04:22:18.191Z,99.90
2018-06-10T04:24:46.630Z,99.90
2018-06-10T04:27:14.297Z,99.90
2018-06-10T04:29:41.823Z,99.90
2018-06-10T04:32:09.373Z,99.90
2018-06-10T04:34:36.973Z,99.90
2018-06-10T04:37:04.635Z,99.90
2018-06-10T04:39:32.161Z,99.90
2018-06-10T04:41:59.731Z,99.90
2018-06-10T04:44:27.253Z,99.90
2018-06-10T04:46:54.846Z,99.90
2018-06-10T04:49:22.405Z,99.90
2018-06-10T04:51:49.952Z,99.90
2018-06-10T04:54:17.517Z,99.90
2018-06-10T04:56:45.084Z,99.90
2018-06-10T04:59:12.633Z,99.90
2018-06-10T05:01:40.204Z,99.90
2018-06-10T05:04:07.742Z,99.90
2018-06-10T05:06:35.316Z,99.90
2018-06-10T05:09:03.841Z,99.90
2018-06-10T05:11:31.404Z,99.90
2018-06-10T05:13:58.931Z,99.90
2018-06-10T05:16:26.481Z,99.90
2018-06-10T05:18:54.038Z,99.90
2018-06-10T05:21:21.598Z,99.90
2018-06-10T05:23:49.132Z,99.90
2018-06-10T05:26:16.989Z,99.90
2018-06-10T05:28:44.526Z,99.90
2018-06-10T05:33:39.593Z,99.90
2018-06-10T05:36:07.138Z,99.90
2018-06-10T05:38:34.712Z,99.90
2018-06-10T05:41:02.290Z,99.90
2018-06-10T05:43:29.843Z,99.90
2018-06-10T05:45:57.390Z,99.90
2018-06-10T05:48:24.962Z,99.90
2018-06-10T05:50:52.506Z,99.90
2018-06-10T05:53:20.074Z,99.90
2018-06-10T05:55:47.675Z,99.90
2018-06-10T05:58:15.249Z,99.90
2018-06-10T06:00:42.797Z,99.90
2018-06-10T06:03:10.396Z,99.90
2018-06-10T06:05:37.946Z,99.90
2018-06-10T06:08:05.501Z,99.90
2018-06-10T06:10:33.055Z,99.90
2018-06-10T06:13:00.755Z,99.90
2018-06-10T06:15:28.417Z,99.90
2018-06-10T06:17:55.970Z,99.90
2018-06-10T06:20:23.521Z,99.90
2018-06-10T06:22:51.350Z,99.90
2018-06-10T06:25:21.543Z,99.90
2018-06-10T06:27:49.145Z,99.90
2018-06-10T06:30:16.803Z,99.90
2018-06-10T06:32:44.361Z,99.90
2018-06-10T06:35:11.901Z,99.90
2018-06-10T06:40:07.121Z,99.90
2018-06-10T06:42:34.739Z,99.90
2018-06-10T06:45:02.875Z,99.90
2018-06-10T06:47:30.445Z,99.90
2018-06-10T06:49:58.029Z,99.90
2018-06-10T06:52:25.755Z,99.90
2018-06-10T06:54:53.293Z,99.90
2018-06-10T06:57:20.911Z,99.90
2018-06-10T06:59:48.470Z,99.90
2018-06-10T07:02:16.026Z,99.90
2018-06-10T07:04:43.589Z,99.90
2018-06-10T07:07:11.169Z,99.90
2018-06-10T07:12:06.250Z,99.90
2018-06-10T07:14:33.823Z,99.90
2018-06-10T07:17:02.042Z,99.90
2018-06-10T07:19:29.725Z,99.90
2018-06-10T07:21:57.272Z,99.80
2018-06-10T07:24:24.828Z,99.30
2018-06-10T07:26:52.435Z,98.30
2018-06-10T07:29:19.984Z,97.90
2018-06-10T07:31:47.534Z,98.20
2018-06-10T07:34:15.113Z,97.60
2018-06-10T07:36:42.774Z,98.70
2018-06-10T07:39:10.327Z,97.90
2018-06-10T07:41:37.890Z,99.90
2018-06-10T07:44:05.478Z,97.80
2018-06-10T07:49:00.776Z,98.90
2018-06-10T07:53:55.993Z,98.60
2018-06-10T07:56:23.526Z,98.80
2018-06-10T07:58:51.211Z,97.40
2018-06-10T08:01:18.770Z,95.50
2018-06-10T08:03:46.346Z,95.10
2018-06-10T08:06:13.897Z,93.20
2018-06-10T08:08:41.491Z,94.10
2018-06-10T08:11:09.048Z,92.70
2018-06-10T08:13:36.622Z,91.90
2018-06-10T08:16:04.194Z,91.70
2018-06-10T08:18:31.729Z,91.60
2018-06-10T08:20:59.302Z,90.80
2018-06-10T08:23:26.876Z,90.90
2018-06-10T08:25:54.561Z,91.00
2018-06-10T08:28:22.098Z,90.80
2018-06-10T08:30:49.673Z,90.70
2018-06-10T08:33:17.200Z,91.40
2018-06-10T08:35:44.766Z,91.70
2018-06-10T08:38:12.319Z,92.00
2018-06-10T08:40:39.919Z,92.00
2018-06-10T08:43:07.465Z,92.10
2018-06-10T08:45:35.086Z,92.30
2018-06-10T08:48:02.654Z,91.30
2018-06-10T08:50:30.335Z,91.70
2018-06-10T08:52:57.811Z,90.90
2018-06-10T08:55:25.471Z,91.90
2018-06-10T08:57:53.029Z,91.80
2018-06-10T09:00:20.597Z,90.80
2018-06-10T09:02:48.158Z,91.80
2018-06-10T09:05:15.742Z,90.90
2018-06-10T09:07:43.269Z,90.10
2018-06-10T09:10:10.826Z,90.50
2018-06-10T09:12:38.484Z,90.30
2018-06-10T09:15:06.062Z,89.80
2018-06-10T09:17:33.653Z,90.10
2018-06-10T09:22:28.734Z,91.00
2018-06-10T09:24:56.321Z,90.90
2018-06-10T09:27:23.900Z,92.30
2018-06-10T09:29:51.470Z,91.30
2018-06-10T09:32:19.283Z,91.30
2018-06-10T09:34:46.866Z,91.20
2018-06-10T09:39:41.945Z,90.00
2018-06-10T09:42:09.552Z,90.50
2018-06-10T09:44:37.398Z,90.90
2018-06-10T09:49:32.524Z,91.00
2018-06-10T09:52:00.047Z,91.10
2018-06-10T09:54:27.593Z,90.90
2018-06-10T09:56:55.193Z,91.40
2018-06-10T09:59:22.728Z,91.10
2018-06-10T10:01:50.374Z,88.60
2018-06-10T10:04:17.932Z,88.50
2018-06-10T10:06:45.528Z,88.30
2018-06-10T10:09:13.071Z,88.90
2018-06-10T10:11:40.710Z,87.40
2018-06-10T10:14:08.226Z,87.00
2018-06-10T10:16:35.910Z,88.60
2018-06-10T10:19:03.476Z,90.00
2018-06-10T10:21:31.066Z,90.50
2018-06-10T10:23:58.692Z,90.00
2018-06-10T10:26:26.264Z,90.20
2018-06-10T10:31:21.377Z,87.90
2018-06-10T10:33:48.925Z,90.50
2018-06-10T10:36:16.915Z,90.40
2018-06-10T10:38:44.759Z,90.40
2018-06-10T10:41:12.328Z,90.40
2018-06-10T10:46:07.618Z,90.40
2018-06-10T10:48:35.319Z,89.70
2018-06-10T10:51:03.185Z,89.90
2018-06-10T10:53:30.705Z,90.20
2018-06-10T10:55:58.385Z,89.60
2018-06-10T10:58:25.954Z,90.20
2018-06-10T11:00:53.553Z,90.10
2018-06-10T11:03:21.095Z,90.30
2018-06-10T11:05:48.949Z,90.10
2018-06-10T11:08:17.052Z,89.70
2018-06-10T11:13:12.109Z,90.00
2018-06-10T11:15:39.688Z,88.90
2018-06-10T11:18:07.234Z,90.70
2018-06-10T11:20:34.764Z,90.30
2018-06-10T11:23:02.338Z,90.80
2018-06-10T11:25:29.879Z,91.30
2018-06-10T11:27:57.529Z,90.70
2018-06-10T11:30:25.053Z,90.00
2018-06-10T11:32:52.705Z,90.20
2018-06-10T11:35:20.246Z,91.50
2018-06-10T11:37:47.826Z,91.70
2018-06-10T11:40:15.478Z,91.50
2018-06-10T11:42:43.037Z,92.10
2018-06-10T11:45:11.525Z,92.00
2018-06-10T11:47:39.141Z,92.50
2018-06-10T11:50:08.172Z,92.90
2018-06-10T11:52:35.839Z,93.50
2018-06-10T11:55:03.406Z,95.00
2018-06-10T11:57:30.957Z,95.00
2018-06-10T11:59:58.487Z,95.40
2018-06-10T12:02:26.045Z,96.10
2018-06-10T12:04:53.578Z,97.00
2018-06-10T12:09:48.695Z,99.80
2018-06-10T12:12:16.317Z,99.90
2018-06-10T12:14:43.853Z,99.90
2018-06-10T12:17:11.474Z,99.90
2018-06-10T12:19:39.053Z,99.90
2018-06-10T12:22:06.653Z,99.90
2018-06-10T12:24:34.180Z,99.90
2018-06-10T12:27:01.742Z,99.90
2018-06-10T12:29:29.421Z,99.90
2018-06-10T12:31:56.983Z,99.90
2018-06-10T12:34:24.510Z,99.90
2018-06-10T12:36:52.137Z,99.90
2018-06-10T12:39:19.707Z,99.90
2018-06-10T12:41:47.320Z,99.90
2018-06-10T12:44:14.978Z,99.90
2018-06-10T12:46:42.557Z,99.90
2018-06-10T12:49:10.160Z,99.90
2018-06-10T12:51:37.723Z,99.90
2018-06-10T12:54:05.344Z,99.90
2018-06-10T12:56:32.927Z,99.90
2018-06-10T12:59:00.506Z,99.90
2018-06-10T13:01:28.098Z,99.90
2018-06-10T13:03:55.665Z,99.90
2018-06-10T13:06:23.201Z,99.90
2018-06-10T13:08:50.749Z,99.90
2018-06-10T13:11:18.359Z,99.90
2018-06-10T13:13:45.929Z,99.90
2018-06-10T13:16:13.642Z,99.90
2018-06-10T13:18:41.317Z,99.90
2018-06-10T13:21:08.860Z,99.90
2018-06-10T13:23:36.709Z,99.90
2018-06-10T13:26:04.426Z,99.90
2018-06-10T13:28:31.966Z,99.90
2018-06-10T13:30:59.563Z,99.90
2018-06-10T13:35:54.682Z,99.90
2018-06-10T13:38:22.265Z,99.90
2018-06-10T13:40:49.875Z,99.90
2018-06-10T13:43:17.407Z,99.90
2018-06-10T13:45:44.939Z,99.90
2018-06-10T13:48:12.530Z,99.90
2018-06-10T13:53:07.689Z,99.90
2018-06-10T13:58:02.870Z,99.90
2018-06-10T14:00:30.400Z,99.90
2018-06-10T14:02:57.934Z,99.90
2018-06-10T14:07:53.053Z,99.90
2018-06-10T14:10:20.601Z,99.90
2018-06-10T14:17:43.319Z,99.90
2018-06-10T14:20:10.935Z,99.90
2018-06-10T14:25:06.115Z,99.90
2018-06-10T14:27:33.686Z,99.90
2018-06-10T14:30:01.284Z,99.90
2018-06-10T14:32:28.853Z,99.90
2018-06-10T14:34:56.433Z,99.90
2018-06-10T14:37:24.033Z,99.90
2018-06-10T14:39:51.678Z,99.90
2018-06-10T14:42:19.315Z,99.90
2018-06-10T14:44:46.892Z,99.90
2018-06-10T14:47:14.510Z,99.90
2018-06-10T14:49:42.085Z,99.90
2018-06-10T14:52:09.632Z,99.90
2018-06-10T14:54:37.207Z,99.90
2018-06-10T14:57:04.737Z,99.90
2018-06-10T14:59:32.340Z,99.90
2018-06-10T15:01:59.894Z,99.90
2018-06-10T15:04:27.470Z,99.90
2018-06-10T15:06:55.015Z,99.90
2018-06-10T15:09:22.609Z,99.90
2018-06-10T15:11:50.126Z,99.90
2018-06-10T15:14:17.701Z,99.90
2018-06-10T15:16:45.269Z,99.90
2018-06-10T15:19:12.919Z,99.90
2018-06-10T15:21:40.463Z,99.90
2018-06-10T15:24:08.072Z,99.90
2018-06-10T15:29:03.176Z,99.90
2018-06-10T15:31:30.726Z,99.90
2018-06-10T15:33:58.246Z,99.90
2018-06-10T15:36:25.858Z,99.90
2018-06-10T15:38:53.394Z,99.90
2018-06-10T15:41:20.976Z,99.90
2018-06-10T15:43:48.611Z,99.90
2018-06-10T15:46:16.442Z,99.90
2018-06-10T15:48:44.137Z,99.90
2018-06-10T15:51:11.668Z,99.90
2018-06-10T15:53:39.498Z,99.90
2018-06-10T15:56:07.096Z,99.90
2018-06-10T15:58:34.663Z,99.90
2018-06-10T16:01:02.207Z,99.90
2018-06-10T16:03:29.791Z,99.90
2018-06-10T16:05:57.335Z,99.90
2018-06-10T16:08:24.931Z,99.90
2018-06-10T16:13:20.061Z,99.90
2018-06-10T16:15:47.609Z,99.90
2018-06-10T16:18:15.196Z,99.90
2018-06-10T16:20:42.732Z,99.90
2018-06-10T16:23:10.302Z,99.90
2018-06-10T16:28:05.616Z,99.90
2018-06-10T16:30:33.195Z,99.90
2018-06-10T16:33:00.801Z,99.90
2018-06-10T16:35:28.385Z,99.90
2018-06-10T16:37:55.939Z,99.90
2018-06-10T16:40:23.469Z,99.90
2018-06-10T16:42:51.046Z,99.90
2018-06-10T16:45:18.660Z,99.90
2018-06-10T16:47:46.264Z,99.90
2018-06-10T16:50:13.795Z,99.90
2018-06-10T16:52:41.382Z,99.90
2018-06-10T16:55:08.982Z,99.90
2018-06-10T17:00:04.678Z,99.90
2018-06-10T17:02:32.216Z,99.90
2018-06-10T17:04:59.826Z,99.90
2018-06-10T17:09:54.889Z,99.90
2018-06-10T17:12:22.422Z,99.90
2018-06-10T17:14:50.021Z,99.90
2018-06-10T17:17:17.557Z,99.90
2018-06-10T17:19:45.189Z,99.90
2018-06-10T17:22:12.737Z,99.90
2018-06-10T17:27:07.915Z,99.90
2018-06-10T17:29:35.434Z,99.90
2018-06-10T17:32:03.153Z,99.90
2018-06-10T17:34:30.742Z,99.90
2018-06-10T17:39:25.894Z,99.90
2018-06-10T17:41:53.433Z,99.90
2018-06-10T17:44:21.026Z,99.90
2018-06-10T17:46:48.563Z,99.90
2018-06-10T17:49:16.253Z,99.90
2018-06-10T17:51:43.821Z,99.90
2018-06-10T17:54:11.356Z,99.90
2018-06-10T17:56:38.944Z,99.90
2018-06-10T17:59:06.607Z,99.90
2018-06-10T18:01:34.229Z,99.90
2018-06-10T18:04:01.793Z,99.90
2018-06-10T18:06:29.398Z,99.90
2018-06-10T18:11:24.493Z,99.90
2018-06-10T18:13:52.041Z,99.90
2018-06-10T18:16:19.681Z,99.90
2018-06-10T18:18:47.196Z,99.90
2018-06-10T18:23:42.347Z,99.90
2018-06-10T18:26:09.877Z,99.90
2018-06-10T18:31:05.004Z,99.90
2018-06-10T18:33:32.610Z,99.90
2018-06-10T18:36:00.167Z,99.90
2018-06-10T18:38:27.749Z,99.90
2018-06-10T18:40:55.336Z,99.90
2018-06-10T18:43:22.941Z,99.90
2018-06-10T18:45:50.513Z,99.90
2018-06-10T18:48:18.120Z,99.90
2018-06-10T18:50:45.689Z,99.90
2018-06-10T18:53:13.398Z,99.90
2018-06-10T18:55:40.973Z,99.90
2018-06-10T18:58:08.542Z,99.90
2018-06-10T19:00:36.132Z,99.90
2018-06-10T19:03:03.830Z,99.90
2018-06-10T19:07:58.873Z,99.90
2018-06-10T19:10:26.465Z,99.90
2018-06-10T19:12:54.017Z,99.90
2018-06-10T19:15:21.569Z,99.90
2018-06-10T19:17:49.166Z,99.90
2018-06-10T19:20:17.021Z,99.90
2018-06-10T19:22:44.550Z,99.90
2018-06-10T19:25:12.130Z,99.90
2018-06-10T19:27:39.674Z,99.90
2018-06-10T19:30:07.285Z,99.90
2018-06-10T19:32:34.885Z,99.90
2018-06-10T19:35:02.563Z,99.90
2018-06-10T19:37:30.281Z,99.90
2018-06-10T19:39:57.833Z,99.90
2018-06-10T19:42:25.589Z,99.90
2018-06-10T19:44:53.120Z,99.90
2018-06-10T19:47:20.842Z,99.90
2018-06-10T19:52:16.070Z,99.90
2018-06-10T19:54:44.002Z,99.90
2018-06-10T19:57:11.601Z,99.90
2018-06-10T20:02:06.730Z,99.90
2018-06-10T20:04:34.548Z,99.90
2018-06-10T20:07:02.225Z,99.90
2018-06-10T20:09:30.058Z,99.90
2018-06-10T20:11:58.094Z,99.90
2018-06-10T20:14:25.938Z,99.90
2018-06-10T20:16:53.899Z,99.90
2018-06-10T20:19:21.555Z,99.90
2018-06-10T20:21:49.152Z,99.90
2018-06-10T20:24:16.700Z,99.90
2018-06-10T20:26:44.334Z,99.90
2018-06-10T20:29:11.876Z,99.90
2018-06-10T20:31:39.401Z,99.90
2018-06-10T20:34:07.093Z,99.90
2018-06-10T20:36:34.670Z,99.90
2018-06-10T20:39:02.365Z,99.90
2018-06-10T20:41:29.975Z,99.90
2018-06-10T20:43:57.598Z,99.90
2018-06-10T20:46:25.256Z,99.90
2018-06-10T20:48:52.958Z,99.90
2018-06-10T20:51:20.551Z,99.90
2018-06-10T20:56:15.956Z,99.90
2018-06-10T20:58:43.494Z,99.90
2018-06-10T21:01:11.105Z,99.90
2018-06-10T21:03:38.657Z,99.90
2018-06-10T21:06:06.297Z,99.90
2018-06-10T21:08:33.835Z,99.90
2018-06-10T21:11:01.621Z,99.90
2018-06-10T21:15:56.725Z,99.90
2018-06-10T21:18:24.311Z,99.90
2018-06-10T21:23:19.451Z,99.90
2018-06-10T21:25:47.466Z,99.90
2018-06-10T21:28:15.037Z,99.90
2018-06-10T21:30:42.630Z,99.90
2018-06-10T21:33:10.253Z,99.90
2018-06-10T21:35:37.813Z,99.90
2018-06-10T21:38:05.368Z,99.90
2018-06-10T21:40:33.013Z,99.90
2018-06-10T21:43:00.637Z,99.90
2018-06-10T21:45:28.245Z,99.90
2018-06-10T21:47:55.844Z,99.90
2018-06-10T21:52:51.019Z,99.90
2018-06-10T21:55:18.737Z,99.90
2018-06-10T21:57:46.287Z,99.90
2018-06-10T22:05:14.333Z,99.90
2018-06-10T22:07:42.152Z,99.90
2018-06-10T22:10:09.821Z,99.90
2018-06-10T22:12:37.545Z,99.90
2018-06-10T22:15:05.474Z,99.90
2018-06-10T22:17:33.148Z,99.90
2018-06-10T22:20:00.832Z,99.90
2018-06-10T22:22:28.478Z,99.90
2018-06-10T22:24:56.238Z,99.90
2018-06-10T22:27:23.861Z,99.90
2018-06-10T22:29:51.648Z,99.90
2018-06-10T22:32:19.558Z,99.90
2018-06-10T22:34:47.303Z,99.90
2018-06-10T22:37:15.082Z,99.90
2018-06-10T22:42:10.349Z,99.90
2018-06-10T22:44:38.050Z,99.90
2018-06-10T22:47:05.773Z,99.90
2018-06-10T22:49:33.404Z,99.90
2018-06-10T22:52:01.139Z,99.90
2018-06-10T22:54:45.038Z,99.90
2018-06-10T22:57:12.750Z,99.90
2018-06-10T22:59:40.724Z,99.90
2018-06-10T23:02:09.153Z,99.90
2018-06-10T23:04:36.838Z,99.90
2018-06-10T23:07:04.607Z,99.90
2018-06-10T23:09:32.302Z,99.90
2018-06-10T23:12:00.046Z,99.90
2018-06-10T23:14:27.710Z,99.90
2018-06-10T23:16:55.408Z,99.90
2018-06-10T23:19:23.202Z,99.90
2018-06-10T23:21:50.866Z,99.90
2018-06-10T23:24:18.840Z,99.90
2018-06-10T23:29:14.230Z,99.90
2018-06-10T23:31:41.971Z,99.90
2018-06-10T23:34:09.681Z,99.90
2018-06-10T23:36:37.321Z,99.90
2018-06-10T23:39:06.685Z,99.90
2018-06-10T23:41:34.475Z,99.90
2018-06-10T23:44:02.262Z,99.90
2018-06-10T23:46:30.111Z,99.90
2018-06-10T23:48:57.750Z,99.90
2018-06-10T23:51:25.557Z,99.90
2018-06-10T23:53:53.208Z,99.90
2018-06-10T23:56:20.837Z,99.90
2018-06-10T23:58:48.513Z,99.90
